Fu Ning Wan — VRDN9 — position and weather

sailwx.info

Track history (hours):
 
Tides and Currents Weather Stations Pressure Air Temp Water Temp Dewpoint Dewpoint Depression Visibility Wind Speed Wind Dir Waves Ship Positions

Fu Ning Wan

Last reported at 2017-Nov-20 00:26 UTC. Time now 2017-Nov-23 20:45 UTC.
Position N 21°51' E 113°51'.

Length 107 m; draft 6.5 m.

Type: Tanker. MMSI: 477003600.

Date/timePositionNaut miles runAvg speedWind from/ knotsBaromVisibWave heightAir tempDewpointWater temp
2017-Nov-20 00:26N 21°51' E 113°51'6 7.8
2017-Nov-19 23:42N 21°47' E 113°47'2 9.5
2017-Nov-19 23:29N 21°45' E 113°46'5 8.7
2017-Nov-19 22:53N 21°42' E 113°42'4 9.2
2017-Nov-19 22:26N 21°41' E 113°37'4 9.1
2017-Nov-19 22:00N 21°39' E 113°33'4 8.7
2017-Nov-19 21:31N 21°38' E 113°29'4 8.7
2017-Nov-19 21:01N 21°37' E 113°24'4 9.0
2017-Nov-19 20:31N 21°36' E 113°20'5 9.2
2017-Nov-19 20:00N 21°34' E 113°15'59 8.5
2017-Nov-19 13:02N 21°22' E 112°12'1 7.9
2017-Nov-19 12:57N 21°22' E 112°12'6 8.9
2017-Nov-19 12:15N 21°23' E 112°05'2 9.2
2017-Nov-19 12:00N 21°22' E 112°03'4 8.6
2017-Nov-19 11:31N 21°21' E 111°58'4 8.7
2017-Nov-19 11:01N 21°20' E 111°54'4 8.8
2017-Nov-19 10:31N 21°20' E 111°49'4 8.5
2017-Nov-19 10:00N 21°19' E 111°45'4 7.8
2017-Nov-19 09:30N 21°19' E 111°40'4 8.3
2017-Nov-19 09:01N 21°19' E 111°36'4 8.0
2017-Nov-19 08:30N 21°18' E 111°32'5 8.6
2017-Nov-19 07:57N 21°18' E 111°27'4 8.5
2017-Nov-19 07:30N 21°18' E 111°23'4 8.9
2017-Nov-19 07:00N 21°18' E 111°18'5 9.1
2017-Nov-19 06:31N 21°17' E 111°13'4 8.8
2017-Nov-19 06:00N 21°20' E 111°09'510.3
2017-Nov-19 05:31N 21°24' E 111°07'5 9.3
2017-Nov-19 05:01N 21°29' E 111°05'1 1.2
2017-Nov-19 04:28N 21°29' E 111°04'0 0.0
2017-Nov-19 03:58N 21°29' E 111°04'0 0.0
2017-Nov-19 03:28N 21°29' E 111°04'0 0.0
2017-Nov-19 02:58N 21°29' E 111°04'0 0.0
2017-Nov-19 02:28N 21°29' E 111°04'0 0.0
2017-Nov-19 01:58N 21°29' E 111°04'0 0.0
2017-Nov-19 01:28N 21°29' E 111°04'0 0.0
2017-Nov-19 00:58N 21°29' E 111°04'0 0.0
2017-Nov-19 00:28N 21°29' E 111°04'0 0.0
2017-Nov-18 23:58N 21°29' E 111°04'0 0.0
2017-Nov-18 23:28N 21°29' E 111°04'0 0.0
2017-Nov-18 22:58N 21°29' E 111°04'0 0.0
2017-Nov-18 22:25N 21°29' E 111°04'0 0.0
2017-Nov-18 21:58N 21°29' E 111°04'0 0.0
2017-Nov-18 21:28N 21°29' E 111°04'0 0.0
2017-Nov-18 20:58N 21°29' E 111°04'0 0.0
2017-Nov-18 20:28N 21°29' E 111°04'0 0.0
2017-Nov-18 19:58N 21°29' E 111°04'0 0.0
2017-Nov-18 19:28N 21°29' E 111°04'0 0.0
2017-Nov-18 18:58N 21°29' E 111°04'0 0.0
2017-Nov-18 18:28N 21°29' E 111°04'0 0.0
2017-Nov-18 17:58N 21°29' E 111°04'0 0.0
2017-Nov-18 17:28N 21°29' E 111°04'0 0.0
2017-Nov-18 16:58N 21°29' E 111°04'0 0.0
2017-Nov-18 16:28N 21°29' E 111°04'0 0.0
2017-Nov-18 15:58N 21°29' E 111°04'0 0.0
2017-Nov-18 15:28N 21°29' E 111°04'0 0.0
2017-Nov-18 14:55N 21°29' E 111°04'0 0.0
2017-Nov-18 14:28N 21°29' E 111°04'0 0.0
2017-Nov-18 13:58N 21°29' E 111°04'0 0.0
2017-Nov-18 13:28N 21°29' E 111°04'0 0.0
2017-Nov-18 12:58N 21°29' E 111°04'0 0.0
2017-Nov-18 12:28N 21°29' E 111°04'0 0.0
2017-Nov-18 11:58N 21°29' E 111°04'0 0.0
2017-Nov-18 11:28N 21°29' E 111°04'0 0.0
2017-Nov-18 10:58N 21°29' E 111°04'0 0.0
2017-Nov-18 10:28N 21°29' E 111°04'0 0.0
2017-Nov-18 09:58N 21°29' E 111°04'0 0.0
2017-Nov-18 09:22N 21°29' E 111°04'0 0.0
2017-Nov-18 08:58N 21°29' E 111°04'0 0.0
2017-Nov-18 08:28N 21°29' E 111°04'0 0.0
2017-Nov-18 07:58N 21°29' E 111°04'0 0.0
2017-Nov-18 07:28N 21°29' E 111°04'0 0.0
2017-Nov-18 06:58N 21°29' E 111°04'0 0.0
2017-Nov-18 06:22N 21°29' E 111°04'0 0.0
2017-Nov-18 05:58N 21°29' E 111°04'0 0.0
2017-Nov-18 05:28N 21°29' E 111°04'0 0.0
2017-Nov-18 04:58N 21°29' E 111°04'0 0.0
2017-Nov-18 04:28N 21°29' E 111°04'0 0.0
2017-Nov-18 03:58N 21°29' E 111°04'0 0.0
2017-Nov-18 03:28N 21°29' E 111°04'0 0.0
2017-Nov-18 02:58N 21°29' E 111°04'0 0.0
2017-Nov-18 02:28N 21°29' E 111°04'0 0.0
2017-Nov-18 01:55N 21°29' E 111°04'0 0.0
2017-Nov-18 01:28N 21°29' E 111°04'0 0.0
2017-Nov-18 00:58N 21°29' E 111°04'0 0.0
2017-Nov-18 00:28N 21°29' E 111°04'0 0.0
2017-Nov-17 23:58N 21°29' E 111°04'0 0.0
2017-Nov-17 23:28N 21°29' E 111°04'0 0.0
2017-Nov-17 22:58N 21°29' E 111°04'0 0.0
2017-Nov-17 22:28N 21°29' E 111°04'0 0.0
2017-Nov-17 21:58N 21°29' E 111°04'0 0.0
2017-Nov-17 21:28N 21°29' E 111°04'0 0.0
2017-Nov-17 20:58N 21°29' E 111°04'0 0.0
2017-Nov-17 20:28N 21°29' E 111°04'0 0.0
2017-Nov-17 19:58N 21°29' E 111°04'0 0.0
2017-Nov-17 19:28N 21°29' E 111°04'0 0.0
2017-Nov-17 18:58N 21°29' E 111°04'0 0.0
2017-Nov-17 18:28N 21°29' E 111°04'0 0.0
2017-Nov-17 17:58N 21°29' E 111°04'0 0.0
2017-Nov-17 17:16N 21°29' E 111°04'0 0.0
2017-Nov-17 16:58N 21°29' E 111°04'0 0.0
2017-Nov-17 16:28N 21°29' E 111°04'0 0.0
2017-Nov-17 15:58N 21°29' E 111°04'0 0.0
2017-Nov-17 15:28N 21°29' E 111°04'0 0.0
2017-Nov-17 14:58N 21°29' E 111°04'0 0.0
2017-Nov-17 14:28N 21°29' E 111°04'0 0.0
2017-Nov-17 13:58N 21°29' E 111°04'0 0.0
2017-Nov-17 13:28N 21°29' E 111°04'0 0.0
2017-Nov-17 12:58N 21°29' E 111°04'0 0.0
2017-Nov-17 12:25N 21°29' E 111°04'0 0.0
2017-Nov-17 11:58N 21°29' E 111°04'0 0.0
2017-Nov-17 11:28N 21°29' E 111°04'0 0.0
2017-Nov-17 10:58N 21°29' E 111°04'0 0.0
2017-Nov-17 10:22N 21°29' E 111°04'0 0.0
2017-Nov-17 09:58N 21°29' E 111°04'0 0.0
2017-Nov-17 09:28N 21°29' E 111°04'0 0.0
2017-Nov-17 08:58N 21°29' E 111°04'0 0.0
2017-Nov-17 08:28N 21°29' E 111°04'0 0.0
2017-Nov-17 07:55N 21°29' E 111°04'0 0.0
2017-Nov-17 07:28N 21°29' E 111°04'0 0.0
2017-Nov-17 06:58N 21°29' E 111°04'0 0.0
2017-Nov-17 06:28N 21°29' E 111°04'0 0.0
2017-Nov-17 05:58N 21°29' E 111°04'0 0.0
2017-Nov-17 05:28N 21°29' E 111°04'0 0.0
2017-Nov-17 04:58N 21°29' E 111°04'0 0.0
2017-Nov-17 04:28N 21°29' E 111°04'0 0.0
2017-Nov-17 03:55N 21°29' E 111°04'0 0.0
2017-Nov-17 03:30N 21°29' E 111°04'2 3.4
2017-Nov-17 03:00N 21°28' E 111°06'4 8.7
2017-Nov-17 02:30N 21°24' E 111°07'2 3.1
2017-Nov-17 02:00N 21°22' E 111°06'1 2.6
2017-Nov-17 01:30N 21°22' E 111°05'0 0.1
2017-Nov-17 00:58N 21°22' E 111°05'0 0.4
2017-Nov-17 00:30N 21°22' E 111°05'3 6.6
2017-Nov-17 00:00N 21°19' E 111°07'611.1
2017-Nov-16 23:30N 21°13' E 111°07'611.9
2017-Nov-16 23:00N 21°07' E 111°06'612.1
2017-Nov-16 22:30N 21°01' E 111°06'611.6
2017-Nov-16 22:00N 20°55' E 111°06'712.3
2017-Nov-16 21:26N 20°48' E 111°06'  
Track history (hours):
 
Tides and Currents Weather Stations Pressure Air Temp Water Temp Dewpoint Dewpoint Depression Visibility Wind Speed Wind Dir Waves Ship Positions

Fu Ning Wan

Last reported at 2017-Nov-20 00:26 UTC. Time now 2017-Nov-23 20:45 UTC.
Position N 21°51' E 113°51'.

Length 107 m; draft 6.5 m.

Type: Tanker. MMSI: 477003600.

Date/timePositionNaut miles runAvg speedWind from/ knotsBaromVisibWave heightAir tempDewpointWater temp
2017-Nov-20 00:26N 21°51' E 113°51'6 7.8
2017-Nov-19 23:42N 21°47' E 113°47'2 9.5
2017-Nov-19 23:29N 21°45' E 113°46'5 8.7
2017-Nov-19 22:53N 21°42' E 113°42'4 9.2
2017-Nov-19 22:26N 21°41' E 113°37'4 9.1
2017-Nov-19 22:00N 21°39' E 113°33'4 8.7
2017-Nov-19 21:31N 21°38' E 113°29'4 8.7
2017-Nov-19 21:01N 21°37' E 113°24'4 9.0
2017-Nov-19 20:31N 21°36' E 113°20'5 9.2
2017-Nov-19 20:00N 21°34' E 113°15'59 8.5
2017-Nov-19 13:02N 21°22' E 112°12'1 7.9
2017-Nov-19 12:57N 21°22' E 112°12'6 8.9
2017-Nov-19 12:15N 21°23' E 112°05'2 9.2
2017-Nov-19 12:00N 21°22' E 112°03'4 8.6
2017-Nov-19 11:31N 21°21' E 111°58'4 8.7
2017-Nov-19 11:01N 21°20' E 111°54'4 8.8
2017-Nov-19 10:31N 21°20' E 111°49'4 8.5
2017-Nov-19 10:00N 21°19' E 111°45'4 7.8
2017-Nov-19 09:30N 21°19' E 111°40'4 8.3
2017-Nov-19 09:01N 21°19' E 111°36'4 8.0
2017-Nov-19 08:30N 21°18' E 111°32'5 8.6
2017-Nov-19 07:57N 21°18' E 111°27'4 8.5
2017-Nov-19 07:30N 21°18' E 111°23'4 8.9
2017-Nov-19 07:00N 21°18' E 111°18'5 9.1
2017-Nov-19 06:31N 21°17' E 111°13'4 8.8
2017-Nov-19 06:00N 21°20' E 111°09'510.3
2017-Nov-19 05:31N 21°24' E 111°07'5 9.3
2017-Nov-19 05:01N 21°29' E 111°05'1 1.2
2017-Nov-19 04:28N 21°29' E 111°04'0 0.0
2017-Nov-19 03:58N 21°29' E 111°04'0 0.0
2017-Nov-19 03:28N 21°29' E 111°04'0 0.0
2017-Nov-19 02:58N 21°29' E 111°04'0 0.0
2017-Nov-19 02:28N 21°29' E 111°04'0 0.0
2017-Nov-19 01:58N 21°29' E 111°04'0 0.0
2017-Nov-19 01:28N 21°29' E 111°04'0 0.0
2017-Nov-19 00:58N 21°29' E 111°04'0 0.0
2017-Nov-19 00:28N 21°29' E 111°04'0 0.0
2017-Nov-18 23:58N 21°29' E 111°04'0 0.0
2017-Nov-18 23:28N 21°29' E 111°04'0 0.0
2017-Nov-18 22:58N 21°29' E 111°04'0 0.0
2017-Nov-18 22:25N 21°29' E 111°04'0 0.0
2017-Nov-18 21:58N 21°29' E 111°04'0 0.0
2017-Nov-18 21:28N 21°29' E 111°04'0 0.0
2017-Nov-18 20:58N 21°29' E 111°04'0 0.0
2017-Nov-18 20:28N 21°29' E 111°04'0 0.0
2017-Nov-18 19:58N 21°29' E 111°04'0 0.0
2017-Nov-18 19:28N 21°29' E 111°04'0 0.0
2017-Nov-18 18:58N 21°29' E 111°04'0 0.0
2017-Nov-18 18:28N 21°29' E 111°04'0 0.0
2017-Nov-18 17:58N 21°29' E 111°04'0 0.0
2017-Nov-18 17:28N 21°29' E 111°04'0 0.0
2017-Nov-18 16:58N 21°29' E 111°04'0 0.0
2017-Nov-18 16:28N 21°29' E 111°04'0 0.0
2017-Nov-18 15:58N 21°29' E 111°04'0 0.0
2017-Nov-18 15:28N 21°29' E 111°04'0 0.0
2017-Nov-18 14:55N 21°29' E 111°04'0 0.0
2017-Nov-18 14:28N 21°29' E 111°04'0 0.0
2017-Nov-18 13:58N 21°29' E 111°04'0 0.0
2017-Nov-18 13:28N 21°29' E 111°04'0 0.0
2017-Nov-18 12:58N 21°29' E 111°04'0 0.0
2017-Nov-18 12:28N 21°29' E 111°04'0 0.0
2017-Nov-18 11:58N 21°29' E 111°04'0 0.0
2017-Nov-18 11:28N 21°29' E 111°04'0 0.0
2017-Nov-18 10:58N 21°29' E 111°04'0 0.0
2017-Nov-18 10:28N 21°29' E 111°04'0 0.0
2017-Nov-18 09:58N 21°29' E 111°04'0 0.0
2017-Nov-18 09:22N 21°29' E 111°04'0 0.0
2017-Nov-18 08:58N 21°29' E 111°04'0 0.0
2017-Nov-18 08:28N 21°29' E 111°04'0 0.0
2017-Nov-18 07:58N 21°29' E 111°04'0 0.0
2017-Nov-18 07:28N 21°29' E 111°04'0 0.0
2017-Nov-18 06:58N 21°29' E 111°04'0 0.0
2017-Nov-18 06:22N 21°29' E 111°04'0 0.0
2017-Nov-18 05:58N 21°29' E 111°04'0 0.0
2017-Nov-18 05:28N 21°29' E 111°04'0 0.0
2017-Nov-18 04:58N 21°29' E 111°04'0 0.0
2017-Nov-18 04:28N 21°29' E 111°04'0 0.0
2017-Nov-18 03:58N 21°29' E 111°04'0 0.0
2017-Nov-18 03:28N 21°29' E 111°04'0 0.0
2017-Nov-18 02:58N 21°29' E 111°04'0 0.0
2017-Nov-18 02:28N 21°29' E 111°04'0 0.0
2017-Nov-18 01:55N 21°29' E 111°04'0 0.0
2017-Nov-18 01:28N 21°29' E 111°04'0 0.0
2017-Nov-18 00:58N 21°29' E 111°04'0 0.0
2017-Nov-18 00:28N 21°29' E 111°04'0 0.0
2017-Nov-17 23:58N 21°29' E 111°04'0 0.0
2017-Nov-17 23:28N 21°29' E 111°04'0 0.0
2017-Nov-17 22:58N 21°29' E 111°04'0 0.0
2017-Nov-17 22:28N 21°29' E 111°04'0 0.0
2017-Nov-17 21:58N 21°29' E 111°04'0 0.0
2017-Nov-17 21:28N 21°29' E 111°04'0 0.0
2017-Nov-17 20:58N 21°29' E 111°04'0 0.0
2017-Nov-17 20:28N 21°29' E 111°04'0 0.0
2017-Nov-17 19:58N 21°29' E 111°04'0 0.0
2017-Nov-17 19:28N 21°29' E 111°04'0 0.0
2017-Nov-17 18:58N 21°29' E 111°04'0 0.0
2017-Nov-17 18:28N 21°29' E 111°04'0 0.0
2017-Nov-17 17:58N 21°29' E 111°04'0 0.0
2017-Nov-17 17:16N 21°29' E 111°04'0 0.0
2017-Nov-17 16:58N 21°29' E 111°04'0 0.0
2017-Nov-17 16:28N 21°29' E 111°04'0 0.0
2017-Nov-17 15:58N 21°29' E 111°04'0 0.0
2017-Nov-17 15:28N 21°29' E 111°04'0 0.0
2017-Nov-17 14:58N 21°29' E 111°04'0 0.0
2017-Nov-17 14:28N 21°29' E 111°04'0 0.0
2017-Nov-17 13:58N 21°29' E 111°04'0 0.0
2017-Nov-17 13:28N 21°29' E 111°04'0 0.0
2017-Nov-17 12:58N 21°29' E 111°04'0 0.0
2017-Nov-17 12:25N 21°29' E 111°04'0 0.0
2017-Nov-17 11:58N 21°29' E 111°04'0 0.0
2017-Nov-17 11:28N 21°29' E 111°04'0 0.0
2017-Nov-17 10:58N 21°29' E 111°04'0 0.0
2017-Nov-17 10:22N 21°29' E 111°04'0 0.0
2017-Nov-17 09:58N 21°29' E 111°04'0 0.0
2017-Nov-17 09:28N 21°29' E 111°04'0 0.0
2017-Nov-17 08:58N 21°29' E 111°04'0 0.0
2017-Nov-17 08:28N 21°29' E 111°04'0 0.0
2017-Nov-17 07:55N 21°29' E 111°04'0 0.0
2017-Nov-17 07:28N 21°29' E 111°04'0 0.0
2017-Nov-17 06:58N 21°29' E 111°04'0 0.0
2017-Nov-17 06:28N 21°29' E 111°04'0 0.0
2017-Nov-17 05:58N 21°29' E 111°04'0 0.0
2017-Nov-17 05:28N 21°29' E 111°04'0 0.0
2017-Nov-17 04:58N 21°29' E 111°04'0 0.0
2017-Nov-17 04:28N 21°29' E 111°04'0 0.0
2017-Nov-17 03:55N 21°29' E 111°04'0 0.0
2017-Nov-17 03:30N 21°29' E 111°04'2 3.4
2017-Nov-17 03:00N 21°28' E 111°06'4 8.7
2017-Nov-17 02:30N 21°24' E 111°07'2 3.1
2017-Nov-17 02:00N 21°22' E 111°06'1 2.6
2017-Nov-17 01:30N 21°22' E 111°05'0 0.1
2017-Nov-17 00:58N 21°22' E 111°05'0 0.4
2017-Nov-17 00:30N 21°22' E 111°05'3 6.6
2017-Nov-17 00:00N 21°19' E 111°07'611.1
2017-Nov-16 23:30N 21°13' E 111°07'611.9
2017-Nov-16 23:00N 21°07' E 111°06'612.1
2017-Nov-16 22:30N 21°01' E 111°06'611.6
2017-Nov-16 22:00N 20°55' E 111°06'712.3
2017-Nov-16 21:26N 20°48' E 111°06'  

Dump ship's entire track history